M I D A S
Marine Information and Data Acquisition System
Tripno 1721 of the Zeeleeuw from 2009-01-16 07:30:54 to 2009-01-16 12:52:50
Back to CruiseResearch ActivitiesStationsMapUnderway DataData graphs

EquipmentUnitsComment
TimeDGPSUTC
LatitudeDGPSDM.mWGS84
LongitudeDGPSDM.mWGS84
HeadingGyrodeg 
SOGDGPSknotsSpeed over ground
COGDGPSdegCourse over ground
DepthEcho soundermeters200 kHz
Missing or incorrect values are displayed as -999
Navigation data collected by the RV Zeeleeuw from 2009-01-16 07:31:05 to 2009-01-16 13:02:10
                                                                                    Next 1000 lines
Time Latitude Longitude Heading SOG COG Depth
2009-01-16 07:31:15 51°13.663 2°55.957 115.8 0.4 299 5.9
2009-01-16 07:31:21 51°13.663 2°55.956 115.8 0.6 301 6
2009-01-16 07:31:25 51°13.664 2°55.955 115.7 0.9 302 5.6
2009-01-16 07:31:30 51°13.665 2°55.952 115.7 1.1 300 5.6
2009-01-16 07:31:35 51°13.665 2°55.95 115.7 1.3 302 5.7
2009-01-16 07:31:41 51°13.667 2°55.947 115.7 1.5 301 5.7
2009-01-16 07:31:45 51°13.668 2°55.944 115.7 1.7 302 5.9
2009-01-16 07:31:51 51°13.669 2°55.94 115.6 1.9 302 -999
2009-01-16 07:31:56 51°13.671 2°55.936 115.3 2 302 -999
2009-01-16 07:32:01 51°13.672 2°55.932 114.7 2.1 301 4.9
2009-01-16 07:32:06 51°13.674 2°55.928 114.1 2.3 300 4.7
2009-01-16 07:32:10 51°13.675 2°55.924 113.3 2.3 299 -999
2009-01-16 07:32:16 51°13.677 2°55.918 112 2.5 298 -999
2009-01-16 07:32:21 51°13.679 2°55.913 109.9 2.6 295 -999
2009-01-16 07:32:26 51°13.68 2°55.908 107.9 2.6 294 -999
2009-01-16 07:32:31 51°13.681 2°55.902 105.8 2.7 292 -999
2009-01-16 07:32:36 51°13.682 2°55.897 103.7 2.7 290 -999
2009-01-16 07:32:41 51°13.683 2°55.891 102.1 2.8 287 -999
2009-01-16 07:32:45 51°13.684 2°55.886 100 2.9 286 -999
2009-01-16 07:32:51 51°13.685 2°55.879 98.4 2.9 284 -999
2009-01-16 07:32:56 51°13.686 2°55.872 97 3 282 -999
2009-01-16 07:33:01 51°13.687 2°55.866 95.4 3 281 -999
2009-01-16 07:33:05 51°13.688 2°55.861 93.7 3 280 -999
2009-01-16 07:33:10 51°13.688 2°55.854 92.3 3 278 -999
2009-01-16 07:33:16 51°13.689 2°55.846 90 2.9 277 -999
2009-01-16 07:33:21 51°13.689 2°55.84 88.1 2.9 274 -999
2009-01-16 07:33:25 51°13.689 2°55.835 86.4 2.8 274 -999
2009-01-16 07:33:30 51°13.689 2°55.829 85.1 2.8 272 -999
2009-01-16 07:33:36 51°13.69 2°55.821 83.5 2.7 271 8.8
2009-01-16 07:33:41 51°13.69 2°55.816 82.4 2.7 270 9
2009-01-16 07:33:45 51°13.69 2°55.811 81.5 2.6 269 9.3
2009-01-16 07:33:50 51°13.689 2°55.805 80.1 2.6 268 9.8
2009-01-16 07:33:56 51°13.689 2°55.799 78.8 2.5 267 10
2009-01-16 07:34:01 51°13.689 2°55.793 77.5 2.5 266 10.4
2009-01-16 07:34:05 51°13.689 2°55.789 76.2 2.4 265 11.1
2009-01-16 07:34:10 51°13.689 2°55.784 74.8 2 267 11.7
2009-01-16 07:34:15 51°13.689 2°55.781 73.5 1.3 271 11.6
2009-01-16 07:34:20 51°13.689 2°55.779 71.4 0.9 287 11.7
2009-01-16 07:34:25 51°13.69 2°55.778 67.6 0.6 333 12
2009-01-16 07:34:30 51°13.691 2°55.778 62.4 0.9 13 12.2
2009-01-16 07:34:35 51°13.693 2°55.779 55.9 1.4 24 12.5
2009-01-16 07:34:41 51°13.695 2°55.781 48.5 1.9 21 12.5
2009-01-16 07:34:45 51°13.698 2°55.782 40.4 2.2 19 12.6
2009-01-16 07:34:50 51°13.701 2°55.784 32.5 2.5 12 12.4
2009-01-16 07:34:56 51°13.706 2°55.785 24.9 2.8 8 12.2
2009-01-16 07:35:01 51°13.71 2°55.785 17.6 2.9 2 12.1
2009-01-16 07:35:05 51°13.713 2°55.784 10.4 3 354 12.2
2009-01-16 07:35:10 51°13.717 2°55.784 3.5 3 353 12.2
2009-01-16 07:35:15 51°13.721 2°55.782 357.8 3 346 12.2
2009-01-16 07:35:21 51°13.726 2°55.779 352 3.1 342 12.1
2009-01-16 07:35:25 51°13.729 2°55.777 346.3 3.1 335 12
2009-01-16 07:35:30 51°13.733 2°55.774 340.5 3.1 331 11.8
2009-01-16 07:35:36 51°13.737 2°55.769 334.7 3.2 326 11.7
2009-01-16 07:35:41 51°13.741 2°55.764 328.9 3.4 321 11.5
2009-01-16 07:35:45 51°13.744 2°55.76 323.3 3.7 318 11.2
2009-01-16 07:35:50 51°13.748 2°55.754 319 3.9 315 10.8
2009-01-16 07:35:56 51°13.753 2°55.746 315.7 4.2 314 10.1
2009-01-16 07:36:01 51°13.757 2°55.739 313.9 4.3 314 9.4
2009-01-16 07:36:05 51°13.76 2°55.733 313.1 4.6 312 9.5
2009-01-16 07:36:10 51°13.765 2°55.725 312.7 4.9 312 9.7
2009-01-16 07:36:15 51°13.77 2°55.717 312.4 5.1 313 9.6
2009-01-16 07:36:21 51°13.775 2°55.707 312.3 5.2 312 9.5
2009-01-16 07:36:25 51°13.779 2°55.7 312.5 5.3 313 9.7
2009-01-16 07:36:30 51°13.785 2°55.691 313.1 5.5 313 9.7
2009-01-16 07:36:35 51°13.79 2°55.683 313.7 5.6 316 9.8
2009-01-16 07:36:41 51°13.797 2°55.672 314.6 5.7 317 9.9
2009-01-16 07:36:45 51°13.802 2°55.666 316 5.8 320 9.9
2009-01-16 07:36:50 51°13.808 2°55.658 318.2 5.8 322 9.9
2009-01-16 07:36:55 51°13.814 2°55.65 320.9 5.9 324 9.9
2009-01-16 07:37:01 51°13.823 2°55.641 323.6 5.9 326 9.9
2009-01-16 07:37:05 51°13.828 2°55.636 326.3 5.9 329 9.9
2009-01-16 07:37:10 51°13.836 2°55.629 329.1 6 331 9.9
2009-01-16 07:37:15 51°13.843 2°55.623 331.4 6 332 9.8
2009-01-16 07:37:21 51°13.852 2°55.616 333 6.1 333 9.8
2009-01-16 07:37:25 51°13.858 2°55.611 333.9 6.1 333 9.8
2009-01-16 07:37:30 51°13.866 2°55.605 334.1 6.2 334 9.8
2009-01-16 07:37:35 51°13.874 2°55.599 334.5 6.2 334 9.8
2009-01-16 07:37:41 51°13.883 2°55.591 334.9 6.3 334 9.8
2009-01-16 07:37:45 51°13.889 2°55.586 334.9 6.4 334 9.8
2009-01-16 07:37:50 51°13.897 2°55.58 334.4 6.4 334 9.8
2009-01-16 07:37:56 51°13.906 2°55.572 334.1 6.4 334 9.8
2009-01-16 07:38:01 51°13.914 2°55.566 334.1 6.4 333 9.8
2009-01-16 07:38:05 51°13.921 2°55.561 334.3 6.5 334 9.8
2009-01-16 07:38:10 51°13.929 2°55.554 334.3 6.6 333 9.8
2009-01-16 07:38:15 51°13.937 2°55.548 333.9 6.6 334 9.8
2009-01-16 07:38:21 51°13.947 2°55.54 334 6.6 334 9.8
2009-01-16 07:38:25 51°13.954 2°55.535 334.5 6.7 334 9.8
2009-01-16 07:38:30 51°13.962 2°55.528 334.7 6.7 334 9.8
2009-01-16 07:38:35 51°13.97 2°55.522 334.9 6.8 334 9.8
2009-01-16 07:38:41 51°13.98 2°55.514 334.9 6.8 334 9.8
2009-01-16 07:38:45 51°13.987 2°55.509 335.6 6.8 335 9.7
2009-01-16 07:38:50 51°13.996 2°55.502 336.2 6.8 335 9.7
2009-01-16 07:38:55 51°14.004 2°55.496 336.3 6.8 335 9.7
2009-01-16 07:39:00 51°14.013 2°55.489 336.3 6.9 335 9.7
2009-01-16 07:39:05 51°14.021 2°55.483 336.3 6.9 335 9.7
2009-01-16 07:39:10 51°14.03 2°55.476 336.4 6.9 335 9.6
2009-01-16 07:39:15 51°14.039 2°55.47 336.4 6.9 335 9.7
2009-01-16 07:39:21 51°14.049 2°55.462 336.4 6.9 335 9.7
2009-01-16 07:39:25 51°14.056 2°55.457 336.4 6.9 335 9.7
2009-01-16 07:39:30 51°14.065 2°55.451 336.5 6.9 335 9.7
2009-01-16 07:39:35 51°14.073 2°55.444 336.4 7 334 9.7
2009-01-16 07:39:41 51°14.084 2°55.436 335.9 7 334 9.7
2009-01-16 07:39:45 51°14.091 2°55.431 335.6 7 334 9.7
2009-01-16 07:39:50 51°14.1 2°55.424 335.6 7 334 9.7
2009-01-16 07:39:55 51°14.108 2°55.417 335.9 7 334 9.7
2009-01-16 07:40:01 51°14.119 2°55.409 335.9 7 334 9.7
2009-01-16 07:40:05 51°14.126 2°55.404 335.9 7 334 9.7
2009-01-16 07:40:10 51°14.134 2°55.397 335.7 7 334 9.7
2009-01-16 07:40:16 51°14.145 2°55.389 335.7 7 334 9.7
2009-01-16 07:40:21 51°14.154 2°55.382 335.7 7 334 9.7
2009-01-16 07:40:25 51°14.161 2°55.376 335.5 7 333 9.7
2009-01-16 07:40:30 51°14.169 2°55.369 334.7 7 332 9.8
2009-01-16 07:40:36 51°14.18 2°55.36 333.6 7.1 330 9.8
2009-01-16 07:40:41 51°14.188 2°55.352 332.4 7 329 9.8
2009-01-16 07:40:45 51°14.195 2°55.345 331.1 7 328 9.8
2009-01-16 07:40:50 51°14.203 2°55.337 329.7 7 327 9.8
2009-01-16 07:40:55 51°14.211 2°55.328 328.2 7.1 325 9.8
2009-01-16 07:41:01 51°14.22 2°55.316 326.4 7.1 323 9.8
2009-01-16 07:41:05 51°14.226 2°55.308 324.6 7.1 321 9.9
2009-01-16 07:41:10 51°14.234 2°55.298 322.6 7.1 319 9.9
2009-01-16 07:41:15 51°14.241 2°55.287 320.5 7.2 317 9.9
2009-01-16 07:41:20 51°14.248 2°55.276 318.3 7.3 315 9.9
2009-01-16 07:41:25 51°14.256 2°55.265 316.6 7.4 315 10.9
2009-01-16 07:41:30 51°14.263 2°55.253 316 7.5 315 9.9
2009-01-16 07:41:35 51°14.27 2°55.241 315.9 7.5 315 10.6
2009-01-16 07:41:41 51°14.279 2°55.227 315.4 7.6 314 9.9
2009-01-16 07:41:46 51°14.286 2°55.215 314.8 7.7 314 10.5
2009-01-16 07:41:50 51°14.292 2°55.205 314.6 7.8 314 10.8
2009-01-16 07:41:56 51°14.301 2°55.189 314.6 8 313 9.9
2009-01-16 07:42:01 51°14.309 2°55.176 314.5 8.1 312 10.4
2009-01-16 07:42:05 51°14.315 2°55.165 313.5 8.3 312 10.6
2009-01-16 07:42:10 51°14.323 2°55.152 313.1 8.4 312 10.5
2009-01-16 07:42:15 51°14.331 2°55.138 313.3 8.6 314 10
2009-01-16 07:42:21 51°14.341 2°55.121 314.2 8.7 312 10.1
2009-01-16 07:42:25 51°14.347 2°55.109 313.6 8.8 311 10
2009-01-16 07:42:30 51°14.355 2°55.094 312.4 8.9 311 10.1
2009-01-16 07:42:36 51°14.365 2°55.076 311.7 9 311 10.2
2009-01-16 07:42:41 51°14.373 2°55.061 312.1 9.1 310 10.6
2009-01-16 07:42:45 51°14.379 2°55.048 312 9.3 308 10.3
2009-01-16 07:42:50 51°14.387 2°55.031 310.4 9.4 308 10.4
2009-01-16 07:42:56 51°14.397 2°55.012 309.5 9.5 310 10.5
2009-01-16 07:43:01 51°14.406 2°54.996 310.2 9.6 311 10.5
2009-01-16 07:43:05 51°14.414 2°54.984 312.6 9.6 314 10.5
2009-01-16 07:43:10 51°14.423 2°54.969 316.3 9.7 316 10.5
2009-01-16 07:43:15 51°14.433 2°54.954 318.9 9.8 318 10.5
2009-01-16 07:43:21 51°14.445 2°54.937 320.6 9.9 319 10.5
2009-01-16 07:43:25 51°14.454 2°54.926 322.1 9.9 322 10.5
2009-01-16 07:43:30 51°14.465 2°54.913 324.5 10 324 10.5
2009-01-16 07:43:35 51°14.477 2°54.901 327.5 10 327 10.4
2009-01-16 07:43:41 51°14.491 2°54.888 330.5 10.1 330 10.2
2009-01-16 07:43:45 51°14.501 2°54.879 333.4 10.1 331 10.2
2009-01-16 07:43:50 51°14.514 2°54.869 335.7 10.1 333 10.2
2009-01-16 07:43:55 51°14.526 2°54.858 337.5 10.2 332 10.1
2009-01-16 07:44:01 51°14.541 2°54.846 337.6 10.3 332 10
2009-01-16 07:44:05 51°14.551 2°54.837 337 10.4 331 9.9
2009-01-16 07:44:10 51°14.564 2°54.825 336.1 10.6 331 9.8
2009-01-16 07:44:16 51°14.58 2°54.812 335.7 10.7 331 9.7
2009-01-16 07:44:21 51°14.593 2°54.8 335.9 10.9 331 9.7
2009-01-16 07:44:25 51°14.604 2°54.791 335.8 11.1 331 9.6
2009-01-16 07:44:30 51°14.617 2°54.779 335.6 11.2 331 9.5
2009-01-16 07:44:35 51°14.631 2°54.766 335.4 11.4 330 9.5
2009-01-16 07:44:41 51°14.647 2°54.751 334.7 11.4 330 9.5
2009-01-16 07:44:45 51°14.658 2°54.74 334 11.6 329 9.5
2009-01-16 07:44:50 51°14.672 2°54.727 333.4 11.8 329 9.5
2009-01-16 07:44:56 51°14.689 2°54.711 333.1 12 329 9.4
2009-01-16 07:45:01 51°14.704 2°54.697 332.7 12.1 329 9.6
2009-01-16 07:45:05 51°14.715 2°54.685 332.5 12.2 328 9.5
2009-01-16 07:45:10 51°14.73 2°54.671 332.1 12.3 328 9.5
2009-01-16 07:45:15 51°14.744 2°54.657 332 12.3 329 9.4
2009-01-16 07:45:21 51°14.762 2°54.64 332 12.3 328 9.5
2009-01-16 07:45:25 51°14.774 2°54.628 331.8 12.4 329 9.5
2009-01-16 07:45:30 51°14.788 2°54.614 332.1 12.4 328 9.3
2009-01-16 07:45:35 51°14.803 2°54.6 332.2 12.4 329 9.4
2009-01-16 07:45:41 51°14.82 2°54.582 332.3 12.4 327 9.4
2009-01-16 07:45:45 51°14.832 2°54.571 331.2 12.4 328 9.5
2009-01-16 07:45:50 51°14.846 2°54.555 330.8 12.4 326 9.5
2009-01-16 07:45:55 51°14.861 2°54.54 330 12.4 327 9.8
2009-01-16 07:46:01 51°14.878 2°54.522 329.6 12.5 326 9.7
2009-01-16 07:46:05 51°14.89 2°54.51 329 12.5 327 9.8
2009-01-16 07:46:10 51°14.904 2°54.494 329 12.5 326 10
2009-01-16 07:46:15 51°14.918 2°54.479 329.1 12.5 327 10.3
2009-01-16 07:46:21 51°14.936 2°54.461 329.4 12.5 327 10.2
2009-01-16 07:46:25 51°14.948 2°54.45 329.7 12.5 327 10.1
2009-01-16 07:46:30 51°14.962 2°54.434 330 12.5 327 10.7
2009-01-16 07:46:36 51°14.98 2°54.416 330 12.6 327 11.3
2009-01-16 07:46:41 51°14.994 2°54.401 329.9 12.6 327 11.4
2009-01-16 07:46:45 51°15.006 2°54.389 329.8 12.7 327 11.4
2009-01-16 07:46:50 51°15.021 2°54.374 329.7 12.6 328 11.3
2009-01-16 07:46:55 51°15.036 2°54.36 330.4 12.6 328 11.5
2009-01-16 07:47:01 51°15.053 2°54.341 330.6 12.7 328 11.4
2009-01-16 07:47:05 51°15.066 2°54.33 330.3 12.7 329 11.3
2009-01-16 07:47:10 51°15.081 2°54.315 330.7 12.7 329 11.3
2009-01-16 07:47:16 51°15.099 2°54.298 331 12.7 329 11.1
2009-01-16 07:47:21 51°15.114 2°54.283 331.1 12.7 328 11.2
2009-01-16 07:47:25 51°15.126 2°54.272 330.6 12.6 329 11.3
2009-01-16 07:47:30 51°15.141 2°54.257 330.7 12.7 328 11.2
2009-01-16 07:47:36 51°15.159 2°54.24 330.5 12.7 329 11.1
2009-01-16 07:47:41 51°15.174 2°54.225 330.4 12.7 329 11.2
2009-01-16 07:47:45 51°15.186 2°54.213 330.5 12.7 329 10.9
2009-01-16 07:47:50 51°15.201 2°54.199 330.7 12.7 329 11.2
2009-01-16 07:47:55 51°15.216 2°54.185 330.7 12.7 330 11.3
2009-01-16 07:48:01 51°15.234 2°54.168 331.1 12.6 329 10.9
2009-01-16 07:48:05 51°15.246 2°54.156 330.7 12.6 329 11.3
2009-01-16 07:48:10 51°15.261 2°54.142 330.7 12.6 329 11.2
2009-01-16 07:48:15 51°15.276 2°54.128 330.8 12.5 329 11.2
2009-01-16 07:48:20 51°15.291 2°54.114 331.4 12.4 331 11
2009-01-16 07:48:25 51°15.306 2°54.101 332.3 12.4 331 11.1
2009-01-16 07:48:30 51°15.321 2°54.088 332.9 12.3 331 11.4
2009-01-16 07:48:35 51°15.336 2°54.075 333.6 12.3 331 11.3
2009-01-16 07:48:40 51°15.351 2°54.062 334 12.3 332 11.3
2009-01-16 07:48:45 51°15.366 2°54.049 334.3 12.3 332 10.9
2009-01-16 07:48:50 51°15.381 2°54.036 334.7 12.3 331 11
2009-01-16 07:48:55 51°15.396 2°54.023 334.7 12.3 331 11.1
2009-01-16 07:49:00 51°15.411 2°54.009 334.4 12.3 331 11.6
2009-01-16 07:49:05 51°15.426 2°53.996 334.4 12.3 330 11
2009-01-16 07:49:10 51°15.441 2°53.982 334 12.3 330 11.2
2009-01-16 07:49:15 51°15.455 2°53.969 333.7 12.3 330 11.4
2009-01-16 07:49:20 51°15.47 2°53.955 333.5 12.3 329 11
2009-01-16 07:49:25 51°15.485 2°53.941 333.4 12.4 330 11.1
2009-01-16 07:49:30 51°15.5 2°53.927 333.7 12.3 329 10.7
2009-01-16 07:49:35 51°15.514 2°53.914 333.8 12.3 330 10.5
2009-01-16 07:49:40 51°15.529 2°53.9 334 12.4 329 10.4
2009-01-16 07:49:45 51°15.544 2°53.886 333.1 12.4 329 10.4
2009-01-16 07:49:50 51°15.558 2°53.871 332.5 12.4 328 10.7
2009-01-16 07:49:55 51°15.573 2°53.856 331.8 12.4 328 10.4
2009-01-16 07:50:01 51°15.59 2°53.838 331.2 12.4 327 10.5
2009-01-16 07:50:05 51°15.602 2°53.826 331.1 12.4 327 10.8
2009-01-16 07:50:10 51°15.616 2°53.811 330.6 12.4 326 10.7
2009-01-16 07:50:15 51°15.63 2°53.797 330.2 12.4 328 10.7
2009-01-16 07:50:21 51°15.648 2°53.78 331 12.4 329 10.8
2009-01-16 07:50:25 51°15.66 2°53.768 331.8 12.4 329 10.7
2009-01-16 07:50:30 51°15.675 2°53.754 332.4 12.3 329 10.7
2009-01-16 07:50:35 51°15.689 2°53.741 333 12.3 330 10.8
2009-01-16 07:50:40 51°15.704 2°53.727 333.5 12.4 330 10.8
2009-01-16 07:50:45 51°15.719 2°53.713 333.8 12.4 331 10.9
2009-01-16 07:50:50 51°15.734 2°53.7 334.2 12.3 331 10.9
2009-01-16 07:50:55 51°15.749 2°53.687 334.6 12.4 330 11
2009-01-16 07:51:00 51°15.764 2°53.673 334.5 12.4 330 10.8
2009-01-16 07:51:05 51°15.779 2°53.659 334.2 12.4 329 11
2009-01-16 07:51:10 51°15.793 2°53.645 333.7 12.4 330 11
2009-01-16 07:51:15 51°15.808 2°53.632 334 12.4 330 11.1
2009-01-16 07:51:20 51°15.823 2°53.618 334.1 12.4 330 10.9
2009-01-16 07:51:25 51°15.838 2°53.604 333.8 12.4 330 11.1
2009-01-16 07:51:30 51°15.853 2°53.591 334 12.3 331 11
2009-01-16 07:51:35 51°15.868 2°53.577 334.1 12.4 330 11.1
2009-01-16 07:51:40 51°15.883 2°53.564 334.1 12.4 330 11.1
2009-01-16 07:51:45 51°15.898 2°53.55 333.7 12.4 330 11
2009-01-16 07:51:50 51°15.912 2°53.536 333.7 12.4 330 11.2
2009-01-16 07:51:55 51°15.927 2°53.522 333.9 12.4 329 11
2009-01-16 07:52:00 51°15.942 2°53.508 333.4 12.4 330 11.1
2009-01-16 07:52:05 51°15.957 2°53.494 333.2 12.5 329 11.1
2009-01-16 07:52:10 51°15.972 2°53.48 333.2 12.5 330 11.1
2009-01-16 07:52:15 51°15.987 2°53.466 333.4 12.5 330 11.3
2009-01-16 07:52:20 51°16.002 2°53.453 333.6 12.4 330 11.1
2009-01-16 07:52:25 51°16.017 2°53.439 333.5 12.5 330 11.3
2009-01-16 07:52:30 51°16.032 2°53.425 333.7 12.5 329 11.2
2009-01-16 07:52:35 51°16.047 2°53.411 333.4 12.5 330 11.3
2009-01-16 07:52:40 51°16.062 2°53.397 333.1 12.5 329 11.3
2009-01-16 07:52:45 51°16.077 2°53.383 333 12.5 330 11.3
2009-01-16 07:52:50 51°16.091 2°53.369 333.2 12.5 330 11.4
2009-01-16 07:52:55 51°16.107 2°53.356 333 12.4 331 11.4
2009-01-16 07:53:00 51°16.121 2°53.342 333.5 12.4 330 11.4
2009-01-16 07:53:05 51°16.136 2°53.328 333.4 12.4 330 11.4
2009-01-16 07:53:10 51°16.151 2°53.315 332.9 12.4 330 11.5
2009-01-16 07:53:15 51°16.166 2°53.301 332.7 12.4 329 11.4
2009-01-16 07:53:20 51°16.181 2°53.286 332.7 12.4 329 11.5
2009-01-16 07:53:25 51°16.196 2°53.273 332.7 12.5 329 11.5
2009-01-16 07:53:30 51°16.211 2°53.259 332.6 12.5 329 11.5
2009-01-16 07:53:35 51°16.226 2°53.244 332.4 12.5 329 11.6
2009-01-16 07:53:40 51°16.241 2°53.23 332.3 12.5 330 11.5
2009-01-16 07:53:45 51°16.255 2°53.217 332.7 12.5 330 11.6
2009-01-16 07:53:50 51°16.271 2°53.203 333 12.5 330 11.5
2009-01-16 07:53:55 51°16.286 2°53.189 333 12.5 330 11.6
2009-01-16 07:54:00 51°16.301 2°53.176 333.2 12.5 332 11.6
2009-01-16 07:54:05 51°16.316 2°53.163 334.4 12.5 332 11.6
2009-01-16 07:54:10 51°16.332 2°53.15 335.3 12.5 333 11.5
2009-01-16 07:54:15 51°16.347 2°53.138 335.6 12.6 334 11.5
2009-01-16 07:54:20 51°16.363 2°53.125 336.6 12.6 334 11.6
2009-01-16 07:54:25 51°16.379 2°53.113 337 12.6 335 11.6
2009-01-16 07:54:30 51°16.395 2°53.101 337.8 12.6 335 11.6
2009-01-16 07:54:35 51°16.41 2°53.089 337.8 12.6 334 11.6
2009-01-16 07:54:41 51°16.429 2°53.074 337.4 12.6 333 11.6
2009-01-16 07:54:45 51°16.441 2°53.064 336.3 12.5 334 11.6
2009-01-16 07:54:50 51°16.457 2°53.052 336.2 12.6 332 11.7
2009-01-16 07:54:55 51°16.472 2°53.039 335.2 12.6 334 11.5
2009-01-16 07:55:00 51°16.488 2°53.026 335.2 12.6 334 11.6
2009-01-16 07:55:05 51°16.503 2°53.015 336 12.6 335 11.5
2009-01-16 07:55:10 51°16.519 2°53.003 336.6 12.6 334 11.4
2009-01-16 07:55:15 51°16.535 2°52.991 337.2 12.6 336 11.4
2009-01-16 07:55:20 51°16.551 2°52.98 337.7 12.6 336 11.4
2009-01-16 07:55:25 51°16.567 2°52.968 338 12.6 336 11.5
2009-01-16 07:55:30 51°16.583 2°52.957 338.3 12.5 337 11.3
2009-01-16 07:55:35 51°16.599 2°52.946 338.6 12.5 336 11.4
2009-01-16 07:55:40 51°16.615 2°52.935 338.3 12.6 336 11.3
2009-01-16 07:55:45 51°16.63 2°52.924 338.3 12.5 336 11.2
2009-01-16 07:55:50 51°16.646 2°52.912 338 12.5 336 11.1
2009-01-16 07:55:55 51°16.662 2°52.901 338.3 12.5 336 11
2009-01-16 07:56:00 51°16.678 2°52.89 338.5 12.5 335 11
2009-01-16 07:56:05 51°16.694 2°52.878 338 12.5 335 11
2009-01-16 07:56:10 51°16.709 2°52.867 337.5 12.4 336 10.7
2009-01-16 07:56:15 51°16.725 2°52.856 337.8 12.4 336 10.6
2009-01-16 07:56:20 51°16.741 2°52.845 338.1 12.4 335 10.5
2009-01-16 07:56:25 51°16.756 2°52.833 337.8 12.4 333 10.1
2009-01-16 07:56:30 51°16.772 2°52.821 336.8 12.3 334 9.9
2009-01-16 07:56:35 51°16.787 2°52.808 336.4 12.3 332 9.6
2009-01-16 07:56:40 51°16.802 2°52.796 335.6 12.3 333 9.2
2009-01-16 07:56:45 51°16.818 2°52.784 335.4 12.3 334 9.3
2009-01-16 07:56:50 51°16.833 2°52.772 336.1 12.3 334 9.3
2009-01-16 07:56:55 51°16.849 2°52.76 336.8 12.3 334 9.1
2009-01-16 07:57:00 51°16.864 2°52.749 337.3 12.3 335 9.1
2009-01-16 07:57:05 51°16.879 2°52.736 337.7 12.3 334 9.2
2009-01-16 07:57:10 51°16.895 2°52.725 337 12.4 334 9.1
2009-01-16 07:57:15 51°16.91 2°52.712 336.5 12.4 333 9.1
2009-01-16 07:57:21 51°16.929 2°52.697 335.9 12.4 333 9.2
2009-01-16 07:57:25 51°16.941 2°52.687 335.6 12.4 333 9.3
2009-01-16 07:57:30 51°16.956 2°52.675 335 12.4 333 9.4
2009-01-16 07:57:35 51°16.972 2°52.664 335.5 12.4 337 9.5
2009-01-16 07:57:40 51°16.988 2°52.653 337.7 12.4 337 9.7
2009-01-16 07:57:45 51°17.004 2°52.643 338.9 12.4 338 9.8
2009-01-16 07:57:50 51°17.02 2°52.633 339.8 12.5 340 9.7
2009-01-16 07:57:55 51°17.036 2°52.624 341 12.4 340 9.6
2009-01-16 07:58:00 51°17.052 2°52.614 342 12.5 341 9.6
2009-01-16 07:58:05 51°17.069 2°52.606 342.4 12.4 341 9.4
2009-01-16 07:58:10 51°17.085 2°52.597 343.1 12.4 342 9.3
2009-01-16 07:58:15 51°17.101 2°52.589 343.7 12.4 344 9.3
2009-01-16 07:58:20 51°17.118 2°52.582 345.4 12.4 345 9.2
2009-01-16 07:58:25 51°17.134 2°52.575 346.7 12.4 346 9.4
2009-01-16 07:58:30 51°17.151 2°52.57 347.9 12.4 347 9.3
2009-01-16 07:58:35 51°17.168 2°52.564 349.2 12.4 348 9.4
2009-01-16 07:58:40 51°17.185 2°52.558 349.8 12.4 349 9.4
2009-01-16 07:58:45 51°17.202 2°52.553 350.1 12.4 349 9.5
2009-01-16 07:58:50 51°17.219 2°52.548 350.9 12.4 351 9.5
2009-01-16 07:58:55 51°17.235 2°52.543 352.2 12.4 349 9.6
2009-01-16 07:59:00 51°17.253 2°52.539 352.3 12.4 351 9.6
2009-01-16 07:59:05 51°17.269 2°52.534 352.3 12.4 350 9.7
2009-01-16 07:59:10 51°17.286 2°52.53 352.6 12.4 350 9.8
2009-01-16 07:59:15 51°17.304 2°52.524 352.4 12.4 350 9.7
2009-01-16 07:59:20 51°17.32 2°52.52 352.3 12.4 350 9.8
2009-01-16 07:59:25 51°17.337 2°52.515 352.5 12.4 350 9.8
2009-01-16 07:59:30 51°17.354 2°52.51 352.8 12.4 349 9.8
2009-01-16 07:59:35 51°17.371 2°52.506 352.3 12.4 349 9.9
2009-01-16 07:59:40 51°17.388 2°52.5 352.2 12.4 350 9.9
2009-01-16 07:59:45 51°17.405 2°52.496 351.9 12.4 350 9.8
2009-01-16 07:59:50 51°17.422 2°52.492 352.4 12.4 353 10
2009-01-16 07:59:55 51°17.439 2°52.489 354.4 12.5 352 10
2009-01-16 08:00:00 51°17.457 2°52.486 355.4 12.4 355 10
2009-01-16 08:00:05 51°17.474 2°52.483 357 12.4 353 9.9
2009-01-16 08:00:10 51°17.491 2°52.481 357 12.4 354 10
2009-01-16 08:00:15 51°17.508 2°52.478 357.1 12.4 354 10
2009-01-16 08:00:20 51°17.525 2°52.475 357.1 12.4 354 10
2009-01-16 08:00:25 51°17.542 2°52.472 357.2 12.4 353 10
2009-01-16 08:00:30 51°17.559 2°52.469 356.7 12.4 354 10
2009-01-16 08:00:35 51°17.576 2°52.466 356.7 12.4 354 10.1
2009-01-16 08:00:40 51°17.593 2°52.464 356.7 12.4 354 10
2009-01-16 08:00:45 51°17.61 2°52.461 356.8 12.4 355 10
2009-01-16 08:00:50 51°17.628 2°52.459 357.1 12.4 355 10
2009-01-16 08:00:55 51°17.645 2°52.457 357.9 12.4 357 10.1
2009-01-16 08:01:00 51°17.662 2°52.455 358.6 12.4 356 10
2009-01-16 08:01:05 51°17.679 2°52.454 359.3 12.4 358 10
2009-01-16 08:01:10 51°17.696 2°52.452 0.3 12.3 356 10
2009-01-16 08:01:15 51°17.713 2°52.452 -999 12.4 358 10
2009-01-16 08:01:20 51°17.73 2°52.45 0.5 12.4 357 10
2009-01-16 08:01:25 51°17.748 2°52.449 0.6 12.3 358 9.9
2009-01-16 08:01:30 51°17.765 2°52.448 0.9 12.3 358 9.8
2009-01-16 08:01:35 51°17.782 2°52.447 1 12.4 357 10
2009-01-16 08:01:41 51°17.802 2°52.446 0.9 12.3 358 10
2009-01-16 08:01:45 51°17.816 2°52.444 0.5 12.3 357 10
2009-01-16 08:01:50 51°17.833 2°52.443 0.6 12.4 358 10
2009-01-16 08:01:55 51°17.85 2°52.442 0.8 12.3 357 10.1
2009-01-16 08:02:00 51°17.867 2°52.441 0.4 12.2 358 10
2009-01-16 08:02:05 51°17.884 2°52.439 0.9 12.3 357 10.1
2009-01-16 08:02:10 51°17.901 2°52.438 0.7 12.4 357 10.2
2009-01-16 08:02:15 51°17.918 2°52.437 0.4 12.3 358 10.2
2009-01-16 08:02:20 51°17.935 2°52.435 1.1 12.3 356 10.2
2009-01-16 08:02:25 51°17.952 2°52.434 0.6 12.3 358 10.1
2009-01-16 08:02:30 51°17.969 2°52.433 0.9 12.3 357 10.3
2009-01-16 08:02:35 51°17.986 2°52.431 0.6 12.4 356 10.2
2009-01-16 08:02:40 51°18.004 2°52.43 0.4 12.3 357 10.2
2009-01-16 08:02:45 51°18.021 2°52.429 0.3 12.3 357 10.2
2009-01-16 08:02:50 51°18.038 2°52.427 0.7 12.3 357 10.2
2009-01-16 08:02:55 51°18.055 2°52.427 0.8 12.4 359 10.3
2009-01-16 08:03:00 51°18.072 2°52.427 1.7 12.3 -999 10.3
2009-01-16 08:03:05 51°18.089 2°52.428 2.3 12.2 5 10.3
2009-01-16 08:03:10 51°18.106 2°52.431 6.6 12.2 7 10.4
2009-01-16 08:03:15 51°18.123 2°52.435 9.5 12.2 10 10.4
2009-01-16 08:03:20 51°18.139 2°52.441 12.1 12.2 11 10.3
2009-01-16 08:03:25 51°18.156 2°52.445 14.1 12.2 12 10.5
2009-01-16 08:03:30 51°18.172 2°52.452 15.3 12.2 13 10.4
2009-01-16 08:03:35 51°18.189 2°52.457 16.1 12.2 12 10.5
2009-01-16 08:03:40 51°18.205 2°52.464 16.2 12.2 14 10.5
2009-01-16 08:03:45 51°18.222 2°52.47 17 12.2 13 10.5
2009-01-16 08:03:50 51°18.238 2°52.476 17.3 12.2 14 10.5
2009-01-16 08:03:55 51°18.254 2°52.483 17.6 12.2 14 10.5
2009-01-16 08:04:00 51°18.271 2°52.489 17.7 12.2 14 10.6
2009-01-16 08:04:05 51°18.287 2°52.496 18.2 12.3 15 10.6
2009-01-16 08:04:10 51°18.304 2°52.503 18.7 12.3 15 10.6
2009-01-16 08:04:15 51°18.32 2°52.51 18.6 12.2 14 10.6
2009-01-16 08:04:20 51°18.337 2°52.516 18.4 12.2 14 10.7
2009-01-16 08:04:25 51°18.353 2°52.524 18 12.3 14 10.7
2009-01-16 08:04:30 51°18.37 2°52.529 18.1 12.3 14 10.7
2009-01-16 08:04:35 51°18.386 2°52.536 17.7 12.2 14 10.8
2009-01-16 08:04:40 51°18.403 2°52.542 17.7 12.2 14 10.7
2009-01-16 08:04:45 51°18.419 2°52.549 17.9 12.2 14 10.8
2009-01-16 08:04:50 51°18.436 2°52.555 18 12.2 13 10.8
2009-01-16 08:04:55 51°18.452 2°52.561 17.4 12.2 12 10.8
2009-01-16 08:05:00 51°18.469 2°52.567 16.8 12.2 14 10.9
2009-01-16 08:05:05 51°18.485 2°52.574 17.4 12.3 13 11
2009-01-16 08:05:10 51°18.502 2°52.58 17.2 12.3 13 11
2009-01-16 08:05:15 51°18.518 2°52.586 17.1 12.2 13 10.9
2009-01-16 08:05:20 51°18.535 2°52.593 17.6 12.2 14 11
2009-01-16 08:05:25 51°18.551 2°52.598 17.7 12.2 13 11
2009-01-16 08:05:30 51°18.568 2°52.605 17 12.3 14 11.1
2009-01-16 08:05:35 51°18.584 2°52.61 17.3 12.2 12 11.1
2009-01-16 08:05:40 51°18.601 2°52.617 16.7 12.2 13 11
2009-01-16 08:05:45 51°18.617 2°52.623 17 12.3 12 11
2009-01-16 08:05:50 51°18.634 2°52.628 16.8 12.2 13 11
2009-01-16 08:05:55 51°18.651 2°52.634 16.7 12.3 12 11.1
2009-01-16 08:06:01 51°18.67 2°52.642 16.8 12.3 13 11.2
2009-01-16 08:06:05 51°18.684 2°52.647 16.7 12.1 13 11.2
2009-01-16 08:06:10 51°18.699 2°52.653 16.9 11.3 14 11.4
2009-01-16 08:06:15 51°18.713 2°52.658 17.4 10.4 13 11.4
2009-01-16 08:06:21 51°18.729 2°52.665 18 9.6 16 11.4
2009-01-16 08:06:25 51°18.738 2°52.67 19.6 8.9 18 11.4
2009-01-16 08:06:30 51°18.749 2°52.677 22.4 8.4 21 11.5
2009-01-16 08:06:35 51°18.759 2°52.683 25.7 7.6 23 11.6
2009-01-16 08:06:40 51°18.768 2°52.691 28.7 7 29 11.6
2009-01-16 08:06:45 51°18.776 2°52.698 33.6 6.4 30 11.6
2009-01-16 08:06:50 51°18.783 2°52.705 37.3 6 33 11.7
2009-01-16 08:06:55 51°18.789 2°52.712 39.4 5.6 35 11.6
2009-01-16 08:07:00 51°18.795 2°52.719 42.1 5.2 36 11.6
2009-01-16 08:07:05 51°18.8 2°52.726 45.2 4.9 39 11.7
2009-01-16 08:07:10 51°18.805 2°52.733 47.8 4.6 40 11.7
2009-01-16 08:07:15 51°18.81 2°52.739 50.2 4.3 42 11.7
2009-01-16 08:07:20 51°18.814 2°52.745 52 4 43 11.7
2009-01-16 08:07:25 51°18.818 2°52.751 54.5 3.8 44 11.7
2009-01-16 08:07:30 51°18.821 2°52.757 56.5 3.6 45 11.7
2009-01-16 08:07:35 51°18.825 2°52.762 58.1 3.4 47 11.7
2009-01-16 08:07:40 51°18.828 2°52.768 60.2 3.2 47 11.7
2009-01-16 08:07:45 51°18.831 2°52.773 62 3 49 11.7
2009-01-16 08:07:50 51°18.833 2°52.778 63.8 2.9 49 11.7
2009-01-16 08:07:55 51°18.835 2°52.783 65.8 2.7 51 11.7
2009-01-16 08:08:00 51°18.838 2°52.787 67.1 2.6 50 11.7
2009-01-16 08:08:05 51°18.84 2°52.791 68.3 2.6 51 11.7
2009-01-16 08:08:10 51°18.843 2°52.796 69.3 2.6 51 11.7
2009-01-16 08:08:15 51°18.845 2°52.801 70.7 2.7 54 11.7
2009-01-16 08:08:20 51°18.847 2°52.806 71.4 2.7 55 11.7
2009-01-16 08:08:25 51°18.849 2°52.811 72.1 2.9 57 11.7
2009-01-16 08:08:30 51°18.851 2°52.817 73.1 3.1 59 11.7
2009-01-16 08:08:35 51°18.854 2°52.823 73.9 3.3 61 11.7
2009-01-16 08:08:40 51°18.856 2°52.83 74.5 3.5 63 11.7
2009-01-16 08:08:45 51°18.858 2°52.836 75.5 3.6 65 11.7
2009-01-16 08:08:50 51°18.86 2°52.844 76.3 3.8 66 11.7
2009-01-16 08:08:55 51°18.862 2°52.852 77.4 3.8 68 11.6
2009-01-16 08:09:00 51°18.864 2°52.86 78.7 3.8 70 11.6
2009-01-16 08:09:05 51°18.866 2°52.868 80.5 3.9 71 11.6
2009-01-16 08:09:10 51°18.867 2°52.877 81.4 3.9 73 11.7
2009-01-16 08:09:15 51°18.869 2°52.885 82.7 4 74 11.7
2009-01-16 08:09:20 51°18.87 2°52.893 83.9 4 76 11.7
2009-01-16 08:09:25 51°18.872 2°52.902 85 4 77 11.7
2009-01-16 08:09:30 51°18.873 2°52.911 86.1 4 78 11.7
2009-01-16 08:09:35 51°18.874 2°52.92 87 4 80 11.6
2009-01-16 08:09:40 51°18.875 2°52.928 88.4 4 81 11.7
2009-01-16 08:09:45 51°18.875 2°52.937 89.7 3.9 83 11.7
2009-01-16 08:09:50 51°18.876 2°52.945 91.7 3.8 84 11.6
2009-01-16 08:09:55 51°18.878 2°52.954 92.7 3.8 86 11.6
2009-01-16 08:10:00 51°18.877 2°52.962 94 3.7 87 11.6
2009-01-16 08:10:05 51°18.877 2°52.97 95.7 3.6 89 11.6
2009-01-16 08:10:10 51°18.876 2°52.977 97.9 3.5 92 11.6
2009-01-16 08:10:15 51°18.876 2°52.985 100.1 3.4 94 11.6
2009-01-16 08:10:21 51°18.876 2°52.994 102.3 3.4 96 11.6
2009-01-16 08:10:25 51°18.875 2°53 104.4 3.3 98 11.5
2009-01-16 08:10:30 51°18.874 2°53.007 106.5 3.3 99 11.6
2009-01-16 08:10:35 51°18.874 2°53.014 108 3.2 100 11.5
2009-01-16 08:10:41 51°18.873 2°53.022 108.9 3.2 101 11.5
2009-01-16 08:10:45 51°18.872 2°53.028 109.4 3.2 100 11.6
2009-01-16 08:10:50 51°18.871 2°53.035 109.9 3.2 103 11.5
2009-01-16 08:10:55 51°18.87 2°53.042 110.6 3.2 103 11.5
2009-01-16 08:11:00 51°18.869 2°53.049 111.2 3.2 103 11.5
2009-01-16 08:11:05 51°18.868 2°53.056 111.4 3.2 103 11.5
2009-01-16 08:11:10 51°18.867 2°53.063 111.4 3.2 100 11.5
2009-01-16 08:11:15 51°18.867 2°53.07 110.7 3.2 102 11.4
2009-01-16 08:11:20 51°18.866 2°53.077 109.9 3.2 98 11.5
2009-01-16 08:11:25 51°18.865 2°53.084 108.3 3.2 98 11.6
2009-01-16 08:11:30 51°18.865 2°53.091 106.7 3.2 94 11.5
2009-01-16 08:11:35 51°18.864 2°53.097 105.2 3.2 92 11.5
2009-01-16 08:11:40 51°18.864 2°53.105 102.8 3.2 89 11.5
2009-01-16 08:11:45 51°18.865 2°53.112 100.4 3.2 87 11.5
2009-01-16 08:11:50 51°18.865 2°53.119 97.5 3.3 84 11.5
2009-01-16 08:11:55 51°18.866 2°53.127 94.9 3.4 82 11.5
2009-01-16 08:12:00 51°18.867 2°53.134 92.8 3.4 81 11.5
2009-01-16 08:12:05 51°18.867 2°53.142 91.7 3.4 81 11.5
2009-01-16 08:12:10 51°18.868 2°53.149 91.2 3.4 81 11.5
2009-01-16 08:12:15 51°18.869 2°53.157 91.7 3.4 83 11.5
2009-01-16 08:12:20 51°18.869 2°53.164 92.7 3.4 83 11.5
2009-01-16 08:12:25 51°18.87 2°53.171 93.4 3.4 82 11.5
2009-01-16 08:12:30 51°18.871 2°53.178 93.9 3.3 83 11.5
2009-01-16 08:12:35 51°18.871 2°53.186 93.9 3.3 81 11.4
2009-01-16 08:12:40 51°18.872 2°53.193 93.2 3.3 80 11.5
2009-01-16 08:12:45 51°18.873 2°53.2 91.9 3.3 78 11.5
2009-01-16 08:12:50 51°18.874 2°53.207 90.7 3.3 78 11.5
2009-01-16 08:12:55 51°18.875 2°53.214 89.4 3.3 76 11.4
2009-01-16 08:13:01 51°18.876 2°53.223 87.9 3.3 75 11.5
2009-01-16 08:13:05 51°18.877 2°53.228 86.5 3.3 73 11.5
2009-01-16 08:13:10 51°18.879 2°53.235 84.9 3.3 72 11.5
2009-01-16 08:13:15 51°18.881 2°53.242 83 3.3 69 11.5
2009-01-16 08:13:20 51°18.882 2°53.249 80.7 3.4 67 11.4
2009-01-16 08:13:25 51°18.884 2°53.256 78.6 3.4 64 11.4
2009-01-16 08:13:30 51°18.886 2°53.262 76.6 3.3 64 11.4
2009-01-16 08:13:35 51°18.888 2°53.269 74.8 3.4 62 11.4
2009-01-16 08:13:40 51°18.891 2°53.276 72.7 3.4 59 11.5
2009-01-16 08:13:45 51°18.893 2°53.282 70.5 3.4 57 11.5
2009-01-16 08:13:50 51°18.896 2°53.288 68.7 3.5 55 11.4
2009-01-16 08:13:55 51°18.898 2°53.295 66.6 3.5 53 11.4
2009-01-16 08:14:00 51°18.901 2°53.301 64.4 3.5 52 11.4
2009-01-16 08:14:05 51°18.904 2°53.306 62.4 3.5 50 11.4
2009-01-16 08:14:10 51°18.908 2°53.312 61 3.4 50 11.5
2009-01-16 08:14:15 51°18.911 2°53.318 60.6 3.5 49 11.4
2009-01-16 08:14:20 51°18.914 2°53.324 61 3.4 51 11.5
2009-01-16 08:14:25 51°18.917 2°53.33 62 3.4 50 11.5
2009-01-16 08:14:30 51°18.919 2°53.336 62.8 3.3 52 11.4
2009-01-16 08:14:35 51°18.922 2°53.341 63.9 3.3 51 11.5
2009-01-16 08:14:41 51°18.926 2°53.348 64.5 3.2 52 11.5
2009-01-16 08:14:45 51°18.928 2°53.353 65.2 3.2 51 11.5
2009-01-16 08:14:50 51°18.93 2°53.358 65.3 3.2 52 11.5
2009-01-16 08:14:55 51°18.933 2°53.364 65.8 3.2 53 11.6
2009-01-16 08:15:00 51°18.936 2°53.369 66.3 3.1 52 11.5
2009-01-16 08:15:05 51°18.938 2°53.375 66.6 3.1 53 11.5
2009-01-16 08:15:10 51°18.941 2°53.38 67 3.1 53 11.5
2009-01-16 08:15:15 51°18.943 2°53.386 67.4 3 55 11.5
2009-01-16 08:15:20 51°18.946 2°53.391 67.6 3 54 11.5
2009-01-16 08:15:25 51°18.948 2°53.397 67.3 3 54 11.5
2009-01-16 08:15:30 51°18.951 2°53.402 67.3 3 51 11.4
2009-01-16 08:15:35 51°18.953 2°53.407 67.5 3 54 11.4
2009-01-16 08:15:40 51°18.956 2°53.412 67.7 3 52 11.5
2009-01-16 08:15:45 51°18.958 2°53.418 67.3 3 54 11.6
2009-01-16 08:15:50 51°18.961 2°53.423 67 3 50 11.5
2009-01-16 08:15:55 51°18.963 2°53.428 67 3 53 11.5
2009-01-16 08:16:00 51°18.966 2°53.434 66.9 3 52 11.5
2009-01-16 08:16:05 51°18.968 2°53.439 66.6 3 54 11.5
2009-01-16 08:16:10 51°18.971 2°53.444 66.4 3 52 11.5
2009-01-16 08:16:15 51°18.973 2°53.449 66.3 3 52 11.5
2009-01-16 08:16:20 51°18.976 2°53.454 66.2 3 52 11.5
2009-01-16 08:16:25 51°18.978 2°53.46 66.1 2.9 51 11.5
2009-01-16 08:16:30 51°18.981 2°53.465 65.8 3 52 11.5
2009-01-16 08:16:35 51°18.984 2°53.47 65.7 3 50 11.5
2009-01-16 08:16:40 51°18.986 2°53.475 65.4 3 51 11.5
2009-01-16 08:16:45 51°18.989 2°53.48 65.3 3 51 11.7
2009-01-16 08:16:50 51°18.991 2°53.486 65 3 52 11.5
2009-01-16 08:16:55 51°18.994 2°53.49 64.6 3 49 11.5
2009-01-16 08:17:00 51°18.996 2°53.496 64.3 2.9 51 11.5
2009-01-16 08:17:05 51°18.999 2°53.501 64.2 3 49 11.5
2009-01-16 08:17:10 51°19.002 2°53.506 64.1 3 51 11.5
2009-01-16 08:17:15 51°19.004 2°53.511 63.8 3 50 11.5
2009-01-16 08:17:21 51°19.007 2°53.517 63.6 3 51 11.4
2009-01-16 08:17:25 51°19.009 2°53.521 63.4 3 50 11.5
2009-01-16 08:17:30 51°19.012 2°53.526 63.3 3 51 11.5
2009-01-16 08:17:35 51°19.015 2°53.531 63 3 49 11.5
2009-01-16 08:17:41 51°19.018 2°53.537 62.8 3 48 11.5
2009-01-16 08:17:45 51°19.02 2°53.541 62.6 3 49 11.5
2009-01-16 08:17:50 51°19.023 2°53.546 62.3 3 48 11.5
2009-01-16 08:17:55 51°19.026 2°53.551 62 3 49 11.5
2009-01-16 08:18:00 51°19.028 2°53.556 61.8 3.1 48 11.5
2009-01-16 08:18:05 51°19.031 2°53.561 61.7 3 48 11.5
2009-01-16 08:18:10 51°19.034 2°53.566 61.7 3 47 11.5
2009-01-16 08:18:15 51°19.037 2°53.571 61.7 3 48 11.5
2009-01-16 08:18:20 51°19.04 2°53.576 61.7 3 46 11.5
2009-01-16 08:18:25 51°19.043 2°53.58 61.7 3 48 11.5
2009-01-16 08:18:30 51°19.045 2°53.586 61.7 3.1 47 11.5
2009-01-16 08:18:35 51°19.048 2°53.591 62 3 48 11.5
2009-01-16 08:18:40 51°19.051 2°53.595 62.1 3 48 11.5
2009-01-16 08:18:45 51°19.054 2°53.601 62.7 3 49 11.5
2009-01-16 08:18:50 51°19.056 2°53.606 62.8 3 50 11.5
2009-01-16 08:18:55 51°19.059 2°53.611 63.3 3 50 11.5
2009-01-16 08:19:00 51°19.062 2°53.616 63.4 3 50 11.5
2009-01-16 08:19:05 51°19.064 2°53.621 63.7 3.1 49 11.4
2009-01-16 08:19:10 51°19.067 2°53.626 64 3 52 11.5
2009-01-16 08:19:15 51°19.069 2°53.631 64.2 3 50 11.5
2009-01-16 08:19:20 51°19.072 2°53.637 64.2 3 51 11.5
2009-01-16 08:19:25 51°19.075 2°53.641 64.3 3 50 11.5
2009-01-16 08:19:30 51°19.077 2°53.647 64.2 3 50 11.5
2009-01-16 08:19:35 51°19.08 2°53.652 64.1 2.9 52 11.5
2009-01-16 08:19:40 51°19.082 2°53.657 63.9 3 51 11.5
2009-01-16 08:19:45 51°19.085 2°53.662 63.8 3 51 11.5
2009-01-16 08:19:50 51°19.088 2°53.667 63.6 3 50 11.5
2009-01-16 08:19:55 51°19.09 2°53.672 63.4 3 50 11.5
2009-01-16 08:20:01 51°19.093 2°53.678 63.5 2.9 49 11.5
2009-01-16 08:20:05 51°19.096 2°53.682 63.3 2.9 50 11.5
2009-01-16 08:20:10 51°19.098 2°53.687 63.1 3 48 11.5
2009-01-16 08:20:15 51°19.101 2°53.692 62.7 3 49 11.5
2009-01-16 08:20:20 51°19.104 2°53.697 62.6 3 49 11.5
2009-01-16 08:20:25 51°19.106 2°53.702 62.3 3 50 11.5
2009-01-16 08:20:30 51°19.109 2°53.707 62.1 3 49 11.5
2009-01-16 08:20:35 51°19.112 2°53.712 61.8 3 48 11.5
2009-01-16 08:20:40 51°19.115 2°53.717 61.8 3 47 11.5
2009-01-16 08:20:45 51°19.118 2°53.722 61.5 3 48 11.5
2009-01-16 08:20:50 51°19.12 2°53.727 61.2 3 45 11.6
2009-01-16 08:20:55 51°19.123 2°53.732 60.7 3 48 11.6
2009-01-16 08:21:00 51°19.126 2°53.736 60.7 3 46 11.5
2009-01-16 08:21:05 51°19.129 2°53.741 60.5 3 47 11.5
2009-01-16 08:21:10 51°19.132 2°53.746 60.5 3.1 46 11.5
2009-01-16 08:21:15 51°19.135 2°53.751 60.5 3 46 11.5
2009-01-16 08:21:20 51°19.137 2°53.756 60.4 3 47 11.5
2009-01-16 08:21:25 51°19.14 2°53.76 60.5 3 47 11.6
2009-01-16 08:21:30 51°19.143 2°53.766 60.8 3 47 11.6
2009-01-16 08:21:35 51°19.146 2°53.77 61.1 3 48 11.6
2009-01-16 08:21:41 51°19.149 2°53.776 61.5 3 48 11.5
2009-01-16 08:21:45 51°19.152 2°53.78 61.7 2.9 49 11.6
2009-01-16 08:21:50 51°19.154 2°53.785 61.9 2.9 49 11.6
2009-01-16 08:21:55 51°19.157 2°53.79 62.1 2.9 49 11.6
2009-01-16 08:22:01 51°19.16 2°53.796 62.1 2.9 48 11.6
2009-01-16 08:22:05 51°19.162 2°53.8 62.3 2.9 49 11.5
2009-01-16 08:22:10 51°19.165 2°53.805 62.3 2.9 50 11.6
2009-01-16 08:22:15 51°19.167 2°53.81 62.4 2.9 49 11.6
2009-01-16 08:22:21 51°19.171 2°53.816 62.4 2.9 49 11.6
2009-01-16 08:22:25 51°19.173 2°53.82 62.4 2.9 50 11.5
2009-01-16 08:22:30 51°19.175 2°53.825 62.7 2.9 51 11.5
2009-01-16 08:22:35 51°19.178 2°53.83 62.7 2.9 51 11.5
2009-01-16 08:22:40 51°19.18 2°53.835 62.7 2.9 49 11.6
2009-01-16 08:22:45 51°19.183 2°53.84 62.8 2.9 50 11.6
2009-01-16 08:22:50 51°19.185 2°53.844 62.8 2.9 50 11.6
2009-01-16 08:22:55 51°19.188 2°53.849 62.7 2.9 49 11.5
2009-01-16 08:23:00 51°19.191 2°53.854 62.5 2.9 50 11.6
2009-01-16 08:23:05 51°19.193 2°53.859 62.2 3 47 11.6
2009-01-16 08:23:10 51°19.196 2°53.864 62 2.9 48 11.6
2009-01-16 08:23:15 51°19.199 2°53.869 61.8 2.9 48 11.6
2009-01-16 08:23:20 51°19.202 2°53.873 61.5 2.9 47 11.6
2009-01-16 08:23:25 51°19.204 2°53.878 61.2 2.9 48 11.6
2009-01-16 08:23:30 51°19.207 2°53.883 61.2 2.9 47 11.6
2009-01-16 08:23:35 51°19.21 2°53.888 61.2 2.9 47 11.6
2009-01-16 08:23:40 51°19.213 2°53.893 61.2 2.9 47 11.6
2009-01-16 08:23:45 51°19.215 2°53.898 61.4 2.9 48 11.6
2009-01-16 08:23:50 51°19.218 2°53.902 61.5 2.9 48 11.6
2009-01-16 08:23:55 51°19.221 2°53.907 62 2.9 49 11.6
2009-01-16 08:24:00 51°19.224 2°53.912 62.1 2.9 48 11.6
2009-01-16 08:24:05 51°19.226 2°53.917 62.2 2.9 47 11.5
2009-01-16 08:24:10 51°19.229 2°53.921 62.1 2.9 46 11.6
2009-01-16 08:24:15 51°19.232 2°53.926 61.7 2.9 47 11.6
2009-01-16 08:24:21 51°19.235 2°53.932 61.7 2.9 48 11.6
2009-01-16 08:24:25 51°19.237 2°53.936 61.5 2.9 48 11.5
2009-01-16 08:24:30 51°19.24 2°53.94 61.4 2.9 48 11.6
2009-01-16 08:24:35 51°19.242 2°53.945 61.7 2.9 48 11.5
2009-01-16 08:24:40 51°19.245 2°53.95 61.8 2.9 48 11.6
2009-01-16 08:24:45 51°19.248 2°53.955 62 2.9 48 11.5
2009-01-16 08:24:50 51°19.25 2°53.959 62.2 2.9 49 11.5
2009-01-16 08:24:55 51°19.253 2°53.964 62.2 2.9 47 11.6
2009-01-16 08:25:00 51°19.255 2°53.969 62.3 2.9 48 11.6
2009-01-16 08:25:05 51°19.258 2°53.974 62 2.9 47 11.6
2009-01-16 08:25:10 51°19.26 2°53.978 62 2.8 49 11.6
2009-01-16 08:25:15 51°19.263 2°53.983 62 2.9 47 11.6
2009-01-16 08:25:20 51°19.266 2°53.988 62.1 2.8 48 11.6
2009-01-16 08:25:25 51°19.268 2°53.992 62.4 2.8 46 11.7
2009-01-16 08:25:30 51°19.271 2°53.997 62.6 2.8 49 11.6
2009-01-16 08:25:35 51°19.274 2°54.001 62.7 2.8 46 11.6
2009-01-16 08:25:40 51°19.276 2°54.006 62.7 2.8 49 11.6
2009-01-16 08:25:45 51°19.279 2°54.011 62.7 2.8 46 11.6
2009-01-16 08:25:50 51°19.281 2°54.015 62.6 2.7 49 11.6
2009-01-16 08:25:55 51°19.284 2°54.02 62.6 2.8 46 11.6
2009-01-16 08:26:00 51°19.286 2°54.024 62.5 2.8 49 11.6
2009-01-16 08:26:05 51°19.289 2°54.029 62.5 2.8 45 11.6
2009-01-16 08:26:10 51°19.292 2°54.033 62.5 2.8 48 11.6
2009-01-16 08:26:15 51°19.294 2°54.038 62.2 2.8 45 11.5
2009-01-16 08:26:21 51°19.297 2°54.043 62 2.7 48 11.6
2009-01-16 08:26:25 51°19.299 2°54.047 61.8 2.8 46 11.6
2009-01-16 08:26:30 51°19.302 2°54.051 61.8 2.8 47 11.6
2009-01-16 08:26:35 51°19.305 2°54.056 61.9 2.8 46 11.6
2009-01-16 08:26:41 51°19.308 2°54.061 62 2.8 47 11.6
2009-01-16 08:26:45 51°19.31 2°54.064 62.2 2.8 48 11.6
2009-01-16 08:26:50 51°19.312 2°54.069 62.7 2.7 48 11.6
2009-01-16 08:26:55 51°19.315 2°54.073 62.7 2.7 50 11.5
2009-01-16 08:27:00 51°19.317 2°54.078 63.1 2.7 47 11.6
2009-01-16 08:27:05 51°19.32 2°54.082 63.1 2.7 49 11.6
2009-01-16 08:27:10 51°19.322 2°54.087 63.3 2.8 46 11.6
2009-01-16 08:27:15 51°19.325 2°54.091 63.3 2.7 50 11.5
2009-01-16 08:27:20 51°19.327 2°54.096 63.4 2.7 47 11.6
2009-01-16 08:27:25 51°19.33 2°54.1 63.4 2.7 49 11.6
2009-01-16 08:27:30 51°19.332 2°54.105 63.3 2.7 47 11.6
2009-01-16 08:27:35 51°19.335 2°54.109 63.3 2.7 49 11.6
2009-01-16 08:27:40 51°19.337 2°54.114 63.3 2.7 48 11.6
2009-01-16 08:27:45 51°19.34 2°54.118 63.3 2.7 49 11.6
2009-01-16 08:27:50 51°19.342 2°54.123 63.3 2.7 48 11.6
2009-01-16 08:27:55 51°19.345 2°54.127 63.4 2.7 49 11.6
2009-01-16 08:28:00 51°19.347 2°54.131 63.4 2.7 48 11.6
2009-01-16 08:28:05 51°19.35 2°54.136 63.5 2.7 49 11.6
2009-01-16 08:28:10 51°19.352 2°54.14 63.5 2.7 49 11.6
2009-01-16 08:28:15 51°19.355 2°54.145 63.4 2.7 48 11.6
2009-01-16 08:28:20 51°19.357 2°54.149 63.5 2.7 48 11.6
2009-01-16 08:28:25 51°19.36 2°54.154 63.3 2.7 47 11.7
2009-01-16 08:28:30 51°19.362 2°54.158 63.1 2.7 47 11.6
2009-01-16 08:28:35 51°19.365 2°54.162 62.9 2.7 47 11.6
2009-01-16 08:28:41 51°19.368 2°54.168 62.7 2.7 47 11.8
2009-01-16 08:28:45 51°19.37 2°54.171 62.6 2.7 46 11.7
2009-01-16 08:28:50 51°19.373 2°54.176 62.3 2.7 45 11.7
2009-01-16 08:28:55 51°19.375 2°54.18 62 2.8 45 11.6
2009-01-16 08:29:01 51°19.378 2°54.185 62 2.7 45 11.6
2009-01-16 08:29:05 51°19.38 2°54.189 61.7 2.7 44 11.8
2009-01-16 08:29:10 51°19.383 2°54.193 61.7 2.8 45 11.6
2009-01-16 08:29:15 51°19.386 2°54.198 61.7 2.7 45 11.6
2009-01-16 08:29:20 51°19.388 2°54.202 62 2.7 46 11.6
2009-01-16 08:29:25 51°19.391 2°54.206 62.2 2.7 46 11.6
2009-01-16 08:29:30 51°19.394 2°54.21 62.3 2.7 46 11.6
2009-01-16 08:29:35 51°19.396 2°54.215 62.4 2.7 46 11.6
2009-01-16 08:29:40 51°19.399 2°54.219 62.8 2.7 45 11.6
2009-01-16 08:29:45 51°19.401 2°54.224 63.1 2.7 47 11.6
2009-01-16 08:29:50 51°19.404 2°54.228 63.3 2.7 47 11.6
2009-01-16 08:29:55 51°19.406 2°54.232 63.4 2.6 48 11.6
2009-01-16 08:30:00 51°19.409 2°54.236 63.5 2.6 47 11.6
2009-01-16 08:30:05 51°19.411 2°54.241 63.7 2.6 48 11.6
2009-01-16 08:30:10 51°19.414 2°54.245 63.8 2.6 48 11.6
2009-01-16 08:30:15 51°19.416 2°54.249 63.7 2.7 48 11.6
2009-01-16 08:30:20 51°19.418 2°54.254 63.7 2.6 48 11.6
2009-01-16 08:30:25 51°19.421 2°54.258 63.5 2.6 48 11.6
2009-01-16 08:30:30 51°19.423 2°54.262 63.4 2.6 48 11.7
2009-01-16 08:30:35 51°19.426 2°54.267 63.1 2.6 47 11.7
2009-01-16 08:30:41 51°19.429 2°54.272 62.7 2.6 48 11.7
2009-01-16 08:30:45 51°19.431 2°54.275 62.6 2.6 47 11.7
2009-01-16 08:30:50 51°19.433 2°54.279 62.1 2.6 47 11.7
2009-01-16 08:30:55 51°19.436 2°54.284 61.8 2.7 46 11.7
2009-01-16 08:31:00 51°19.438 2°54.288 61.7 2.6 47 11.7
2009-01-16 08:31:05 51°19.441 2°54.292 61.6 2.6 47 11.7
2009-01-16 08:31:10 51°19.443 2°54.297 61.4 2.7 47 11.7
2009-01-16 08:31:15 51°19.446 2°54.301 61.3 2.6 46 11.7
2009-01-16 08:31:21 51°19.449 2°54.306 61.2 2.7 45 11.6
2009-01-16 08:31:25 51°19.451 2°54.309 61.1 2.7 47 11.7
2009-01-16 08:31:30 51°19.453 2°54.314 61.1 2.7 47 11.7
2009-01-16 08:31:35 51°19.456 2°54.318 61.1 2.6 46 11.7
2009-01-16 08:31:41 51°19.459 2°54.323 61.1 2.7 46 11.7
2009-01-16 08:31:45 51°19.461 2°54.327 61.2 2.7 46 11.7
2009-01-16 08:31:50 51°19.464 2°54.331 61.2 2.6 47 11.7
2009-01-16 08:31:55 51°19.466 2°54.335 61.2 2.7 46 11.7
2009-01-16 08:32:00 51°19.469 2°54.339 61 2.7 46 11.7
2009-01-16 08:32:05 51°19.472 2°54.344 61.2 2.7 46 11.7
2009-01-16 08:32:10 51°19.474 2°54.348 61.2 2.7 47 11.7
2009-01-16 08:32:15 51°19.477 2°54.353 61.3 2.7 48 11.7
2009-01-16 08:32:20 51°19.479 2°54.357 61.4 2.8 46 11.7
2009-01-16 08:32:25 51°19.482 2°54.361 61.3 2.8 48 11.7
2009-01-16 08:32:30 51°19.485 2°54.366 61.3 2.8 46 11.7
2009-01-16 08:32:35 51°19.487 2°54.371 61.2 2.8 46 11.7
2009-01-16 08:32:40 51°19.49 2°54.375 60.9 2.9 46 11.7
2009-01-16 08:32:45 51°19.492 2°54.38 60.7 2.9 47 11.7
2009-01-16 08:32:50 51°19.495 2°54.384 60.7 2.8 46 11.8
2009-01-16 08:32:55 51°19.498 2°54.389 60.7 2.9 47 11.7
2009-01-16 08:33:00 51°19.501 2°54.393 60.7 2.9 46 11.8
2009-01-16 08:33:05 51°19.503 2°54.398 60.7 2.9 47 11.8
2009-01-16 08:33:10 51°19.506 2°54.403 61 2.9 47 11.7
2009-01-16 08:33:15 51°19.509 2°54.408 61.2 2.9 48 11.8
2009-01-16 08:33:21 51°19.512 2°54.413 61.3 2.9 47 11.8
2009-01-16 08:33:25 51°19.514 2°54.417 61.5 2.9 47 11.7
2009-01-16 08:33:30 51°19.517 2°54.422 61.7 2.9 47 11.7
2009-01-16 08:33:35 51°19.52 2°54.427 61.8 2.9 49 11.7
2009-01-16 08:33:41 51°19.523 2°54.432 61.8 2.9 47 11.8
2009-01-16 08:33:45 51°19.525 2°54.436 61.8 2.9 48 11.8
2009-01-16 08:33:50 51°19.528 2°54.441 61.9 2.9 48 11.9
2009-01-16 08:33:55 51°19.53 2°54.446 61.9 2.9 49 11.8
2009-01-16 08:34:00 51°19.533 2°54.45 62 2.9 48 11.8
2009-01-16 08:34:05 51°19.536 2°54.455 62 2.9 49 11.8
2009-01-16 08:34:10 51°19.538 2°54.46 62.2 2.9 49 11.8
2009-01-16 08:34:15 51°19.541 2°54.465 62.2 2.9 49 11.8
2009-01-16 08:34:20 51°19.544 2°54.47 62.4 2.9 48 11.8
2009-01-16 08:34:25 51°19.546 2°54.475 62.6 2.9 50 11.8
2009-01-16 08:34:30 51°19.549 2°54.48 62.7 2.9 49 11.8
2009-01-16 08:34:35 51°19.551 2°54.484 62.9 2.9 50 11.9
2009-01-16 08:34:40 51°19.554 2°54.489 62.9 2.9 49 11.8
2009-01-16 08:34:45 51°19.557 2°54.494 63.1 2.9 50 11.9
2009-01-16 08:34:50 51°19.56 2°54.499 63.2 2.9 49 11.8
2009-01-16 08:34:55 51°19.562 2°54.504 63.2 2.9 50 11.8
2009-01-16 08:35:00 51°19.565 2°54.509 63 2.9 49 11.9
2009-01-16 08:35:05 51°19.567 2°54.514 62.8 2.9 49 11.9
2009-01-16 08:35:10 51°19.57 2°54.519 62.5 2.9 48 11.9
2009-01-16 08:35:15 51°19.573 2°54.524 62.2 2.9 48 11.9
2009-01-16 08:35:20 51°19.575 2°54.528 61.8 2.9 47 11.9
2009-01-16 08:35:25 51°19.578 2°54.533 61.6 2.9 48 11.9
2009-01-16 08:35:30 51°19.581 2°54.538 61.6 2.9 47 11.8
2009-01-16 08:35:35 51°19.584 2°54.543 61.4 2.9 48 11.9
2009-01-16 08:35:40 51°19.587 2°54.548 61.4 2.9 47 11.9
2009-01-16 08:35:45 51°19.589 2°54.552 61.4 2.9 48 11.9
2009-01-16 08:35:50 51°19.592 2°54.557 61.5 2.9 47 11.8
2009-01-16 08:35:55 51°19.595 2°54.562 61.5 2.9 47 11.8
2009-01-16 08:36:01 51°19.598 2°54.568 61.6 2.9 48 11.9
2009-01-16 08:36:05 51°19.601 2°54.572 61.7 2.9 48 11.9
2009-01-16 08:36:10 51°19.604 2°54.577 61.6 2.9 47 11.8
2009-01-16 08:36:15 51°19.606 2°54.581 61.5 2.9 47 11.9
2009-01-16 08:36:20 51°19.609 2°54.586 61.3 3 48 11.9
2009-01-16 08:36:25 51°19.612 2°54.591 61.3 3 47 11.9
2009-01-16 08:36:30 51°19.614 2°54.596 61.2 2.9 49 11.8
2009-01-16 08:36:35 51°19.617 2°54.6 61.3 2.9 48 11.8
2009-01-16 08:36:40 51°19.62 2°54.605 61.3 2.9 49 11.9
2009-01-16 08:36:45 51°19.622 2°54.61 61.3 2.8 48 11.9
2009-01-16 08:36:50 51°19.625 2°54.615 61.6 2.9 49 11.9
2009-01-16 08:36:55 51°19.628 2°54.62 61.7 2.9 48 11.9
2009-01-16 08:37:00 51°19.63 2°54.624 61.8 2.9 49 11.9
2009-01-16 08:37:05 51°19.633 2°54.629 61.9 2.8 49 11.8
2009-01-16 08:37:10 51°19.636 2°54.634 62 2.9 48 11.9
2009-01-16 08:37:15 51°19.639 2°54.639 61.8 2.9 50 11.9
2009-01-16 08:37:20 51°19.641 2°54.644 62 2.9 49 11.9
2009-01-16 08:37:25 51°19.644 2°54.649 62 2.9 49 11.8
2009-01-16 08:37:30 51°19.647 2°54.653 62 2.9 49 11.9
2009-01-16 08:37:35 51°19.649 2°54.658 62 2.9 49 11.8
2009-01-16 08:37:41 51°19.653 2°54.664 62 2.9 48 11.9
2009-01-16 08:37:45 51°19.655 2°54.668 62.2 2.9 49 11.9
2009-01-16 08:37:50 51°19.657 2°54.673 62.2 2.9 49 11.9
2009-01-16 08:37:55 51°19.66 2°54.678 62.4 2.9 49 11.9
2009-01-16 08:38:01 51°19.663 2°54.683 62.4 2.9 49 11.9
2009-01-16 08:38:05 51°19.665 2°54.687 62.6 2.9 49 11.9
2009-01-16 08:38:10 51°19.667 2°54.692 62.8 2.9 50 11.9
2009-01-16 08:38:15 51°19.67 2°54.697 63.1 2.9 49 11.9
2009-01-16 08:38:21 51°19.673 2°54.703 63.4 2.9 50 11.9
2009-01-16 08:38:25 51°19.675 2°54.707 63.4 2.9 49 11.9
2009-01-16 08:38:30 51°19.677 2°54.712 63.3 2.9 50 11.9
2009-01-16 08:38:35 51°19.68 2°54.716 63 2.9 49 11.9
2009-01-16 08:38:40 51°19.683 2°54.721 62.5 2.8 49 11.9
2009-01-16 08:38:45 51°19.686 2°54.726 62.2 2.9 49 11.9
2009-01-16 08:38:50 51°19.688 2°54.731 62.2 2.9 50 11.8
2009-01-16 08:38:55 51°19.691 2°54.735 62 2.9 48 11.9
2009-01-16 08:39:00 51°19.693 2°54.74 61.8 2.9 49 11.9
2009-01-16 08:39:05 51°19.696 2°54.745 61.6 2.9 48 11.9
2009-01-16 08:39:10 51°19.698 2°54.75 61.4 2.9 48 11.9
2009-01-16 08:39:15 51°19.701 2°54.754 61.2 2.9 47 11.9
2009-01-16 08:39:20 51°19.704 2°54.759 61.1 2.9 47 11.9
2009-01-16 08:39:25 51°19.706 2°54.764 61.1 2.9 48 12
2009-01-16 08:39:30 51°19.709 2°54.768 61 2.8 48 11.8
2009-01-16 08:39:35 51°19.712 2°54.773 61 2.9 47 11.9
2009-01-16 08:39:40 51°19.714 2°54.777 61.1 2.9 47 11.9
2009-01-16 08:39:45 51°19.717 2°54.782 61.2 2.9 47 11.8
2009-01-16 08:39:50 51°19.719 2°54.787 61.3 2.8 49 11.9
2009-01-16 08:39:55 51°19.722 2°54.791 61.4 2.8 47 11.9
2009-01-16 08:40:00 51°19.724 2°54.796 61.4 2.8 48 11.9
2009-01-16 08:40:05 51°19.727 2°54.801 61.5 2.8 48 12
2009-01-16 08:40:10 51°19.73 2°54.805 61.5 2.8 48 12
2009-01-16 08:40:15 51°19.732 2°54.81 61.7 2.8 47 11.9
2009-01-16 08:40:21 51°19.735 2°54.816 62 2.8 48 11.9
2009-01-16 08:40:25 51°19.737 2°54.819 62 2.8 47 12
2009-01-16 08:40:30 51°19.74 2°54.824 62 2.8 48 11.9
2009-01-16 08:40:35 51°19.742 2°54.828 62.1 2.8 48 11.9
2009-01-16 08:40:41 51°19.746 2°54.834 62.3 2.8 48 11.9
2009-01-16 08:40:45 51°19.748 2°54.838 62.4 2.8 50 11.9
2009-01-16 08:40:50 51°19.75 2°54.842 62.3 2.8 48 12
2009-01-16 08:40:55 51°19.753 2°54.847 62.2 2.8 50 11.9
2009-01-16 08:41:00 51°19.755 2°54.852 62.4 2.8 47 11.9
2009-01-16 08:41:05 51°19.758 2°54.856 62.4 2.8 50 11.9
2009-01-16 08:41:10 51°19.76 2°54.861 62.7 2.8 47 11.9
2009-01-16 08:41:15 51°19.763 2°54.866 62.7 2.8 49 11.9
2009-01-16 08:41:20 51°19.766 2°54.87 62.8 2.8 49 11.9
2009-01-16 08:41:25 51°19.768 2°54.875 62.9 2.8 49 12
2009-01-16 08:41:30 51°19.771 2°54.88 62.7 2.8 49 11.9
2009-01-16 08:41:35 51°19.773 2°54.884 62.7 2.8 49 11.9
2009-01-16 08:41:40 51°19.776 2°54.889 62.7 2.8 49 11.9
2009-01-16 08:41:45 51°19.778 2°54.894 62.7 2.8 49 11.9
2009-01-16 08:41:50 51°19.781 2°54.898 62.7 2.8 48 11.9
2009-01-16 08:41:55 51°19.783 2°54.903 62.5 2.8 49 11.9
2009-01-16 08:42:01 51°19.786 2°54.909 62.4 2.8 47 11.9
2009-01-16 08:42:05 51°19.788 2°54.912 62.1 2.8 49 11.9
2009-01-16 08:42:10 51°19.791 2°54.917 62.1 2.8 46 11.9
2009-01-16 08:42:15 51°19.794 2°54.921 62.1 2.8 51 11.9
2009-01-16 08:42:21 51°19.797 2°54.927 62.4 2.8 47 11.9
2009-01-16 08:42:25 51°19.799 2°54.931 62.4 2.8 50 12
2009-01-16 08:42:30 51°19.801 2°54.936 62.4 2.8 49 11.9
2009-01-16 08:42:35 51°19.804 2°54.94 62.7 2.8 50 11.9
2009-01-16 08:42:41 51°19.807 2°54.946 62.8 2.8 48 12
2009-01-16 08:42:45 51°19.809 2°54.95 62.9 2.8 50 12
2009-01-16 08:42:50 51°19.812 2°54.954 62.9 2.8 48 11.9
2009-01-16 08:42:55 51°19.814 2°54.959 62.9 2.8 50 11.9
2009-01-16 08:43:01 51°19.817 2°54.965 62.9 2.8 48 11.9
2009-01-16 08:43:05 51°19.819 2°54.968 62.9 2.8 49 11.9
2009-01-16 08:43:10 51°19.822 2°54.973 62.9 2.8 49 11.9
2009-01-16 08:43:15 51°19.824 2°54.978 62.9 2.8 50 12
2009-01-16 08:43:20 51°19.827 2°54.982 62.7 2.8 47 12
2009-01-16 08:43:25 51°19.83 2°54.987 62.4 2.8 50 12
2009-01-16 08:43:30 51°19.832 2°54.992 62.3 2.9 49 12
2009-01-16 08:43:35 51°19.835 2°54.997 62.2 2.9 50 12
2009-01-16 08:43:40 51°19.837 2°55.001 62 2.9 47 11.9
2009-01-16 08:43:45 51°19.84 2°55.006 61.9 2.8 49 11.9
2009-01-16 08:43:50 51°19.842 2°55.011 61.9 2.8 48 12
2009-01-16 08:43:55 51°19.845 2°55.015 61.8 2.8 50 12
2009-01-16 08:44:00 51°19.848 2°55.02 61.7 2.8 49 12
2009-01-16 08:44:05 51°19.85 2°55.025 61.7 2.8 50 12
2009-01-16 08:44:10 51°19.853 2°55.029 61.7 2.8 49 12
2009-01-16 08:44:15 51°19.855 2°55.034 61.7 2.8 49 11.9
2009-01-16 08:44:20 51°19.858 2°55.039 61.7 2.8 49 11.9
2009-01-16 08:44:25 51°19.86 2°55.044 61.7 2.8 50 12
2009-01-16 08:44:30 51°19.863 2°55.048 61.6 2.8 49 11.9
2009-01-16 08:44:35 51°19.865 2°55.053 61.5 2.8 50 11.9
2009-01-16 08:44:41 51°19.868 2°55.059 61.6 2.8 49 11.9
2009-01-16 08:44:45 51°19.87 2°55.062 61.9 2.8 49 12
2009-01-16 08:44:50 51°19.873 2°55.067 61.8 2.8 50 11.9
2009-01-16 08:44:55 51°19.875 2°55.072 61.7 2.8 49 11.9
2009-01-16 08:45:01 51°19.878 2°55.077 61.3 2.8 49 12
2009-01-16 08:45:05 51°19.88 2°55.081 61.2 2.9 48 11.9
2009-01-16 08:45:10 51°19.883 2°55.086 61.2 2.8 49 11.9
2009-01-16 08:45:15 51°19.885 2°55.091 61.1 2.9 47 11.9
2009-01-16 08:45:21 51°19.888 2°55.096 61.1 2.8 49 11.9
2009-01-16 08:45:25 51°19.89 2°55.1 61 2.8 47 12
2009-01-16 08:45:30 51°19.893 2°55.105 61.1 2.8 49 12
2009-01-16 08:45:35 51°19.896 2°55.109 61.2 2.8 47 12
2009-01-16 08:45:40 51°19.898 2°55.114 61.2 2.8 49 12
2009-01-16 08:45:45 51°19.901 2°55.119 61.2 2.9 47 11.9
2009-01-16 08:45:50 51°19.903 2°55.123 61.2 2.8 50 11.9
2009-01-16 08:45:55 51°19.906 2°55.128 61.2 2.8 47 11.9
2009-01-16 08:46:00 51°19.909 2°55.133 61.2 2.8 49 11.9
2009-01-16 08:46:05 51°19.911 2°55.137 61.5 2.8 48 11.9
2009-01-16 08:46:10 51°19.914 2°55.142 61.9 2.8 50 11.9
2009-01-16 08:46:15 51°19.916 2°55.147 62 2.8 49 11.9
2009-01-16 08:46:21 51°19.919 2°55.152 62.1 2.8 50 12
2009-01-16 08:46:25 51°19.921 2°55.156 62.3 2.8 48 12
2009-01-16 08:46:30 51°19.924 2°55.161 62.4 2.8 50 11.9
2009-01-16 08:46:35 51°19.926 2°55.166 62.6 2.8 49 12
2009-01-16 08:46:41 51°19.929 2°55.171 62.4 2.8 51 12
2009-01-16 08:46:45 51°19.932 2°55.175 62.4 2.8 49 11.9
2009-01-16 08:46:50 51°19.934 2°55.18 62.6 2.8 50 11.9
2009-01-16 08:46:55 51°19.937 2°55.184 62.6 2.8 49 12
2009-01-16 08:47:00 51°19.939 2°55.189 62.7 2.8 50 11.9
2009-01-16 08:47:05 51°19.942 2°55.194 62.7 2.8 49 11.9
2009-01-16 08:47:10 51°19.944 2°55.198 62.4 2.8 50 12
2009-01-16 08:47:15 51°19.947 2°55.203 62 2.8 48 12
2009-01-16 08:47:21 51°19.95 2°55.209 61.9 2.8 48 12
2009-01-16 08:47:25 51°19.952 2°55.212 61.6 2.8 48 12
2009-01-16 08:47:30 51°19.954 2°55.217 61.6 2.8 49 12
2009-01-16 08:47:35 51°19.957 2°55.221 61.4 2.8 46 12
2009-01-16 08:47:41 51°19.96 2°55.227 61.3 2.8 48 11.9
2009-01-16 08:47:45 51°19.962 2°55.231 61.2 2.8 48 11.9
2009-01-16 08:47:50 51°19.965 2°55.235 61.2 2.8 48 12
2009-01-16 08:47:55 51°19.968 2°55.24 61.2 2.8 47 12
2009-01-16 08:48:00 51°19.97 2°55.245 61.2 2.8 48 11.9
2009-01-16 08:48:05 51°19.973 2°55.249 61.4 2.8 49 11.9
2009-01-16 08:48:10 51°19.975 2°55.254 61.7 2.7 50 12
2009-01-16 08:48:15 51°19.978 2°55.259 62 2.8 49 11.9
2009-01-16 08:48:20 51°19.98 2°55.263 62.3 2.8 50 12
2009-01-16 08:48:25 51°19.983 2°55.268 62.6 2.8 49 11.9
2009-01-16 08:48:30 51°19.985 2°55.273 62.9 2.8 50 11.9
2009-01-16 08:48:35 51°19.988 2°55.277 62.8 2.8 49 11.9
2009-01-16 08:48:40 51°19.99 2°55.282 62.9 2.7 51 11.9
2009-01-16 08:48:45 51°19.992 2°55.287 62.8 2.8 49 12
2009-01-16 08:48:50 51°19.995 2°55.291 62.7 2.8 49 12
2009-01-16 08:48:55 51°19.998 2°55.296 62.6 2.8 49 12
2009-01-16 08:49:01 51°20.001 2°55.302 62.4 2.8 49 12
2009-01-16 08:49:05 51°20.003 2°55.305 62.4 2.8 49 12
2009-01-16 08:49:10 51°20.005 2°55.31 62.4 2.8 50 11.9
2009-01-16 08:49:15 51°20.007 2°55.314 62.7 2.8 49 12
2009-01-16 08:49:21 51°20.01 2°55.32 62.8 2.8 50 12
2009-01-16 08:49:25 51°20.012 2°55.324 62.9 2.8 50 12
2009-01-16 08:49:30 51°20.015 2°55.329 63.1 2.8 50 11.9
2009-01-16 08:49:35 51°20.017 2°55.333 63.2 2.8 50 11.9
2009-01-16 08:49:41 51°20.02 2°55.339 63.3 2.8 49 12
2009-01-16 08:49:45 51°20.022 2°55.343 63.3 2.8 51 12
2009-01-16 08:49:50 51°20.025 2°55.347 63.4 2.8 50 11.9
2009-01-16 08:49:55 51°20.027 2°55.352 63.5 2.7 51 12
2009-01-16 08:50:01 51°20.03 2°55.358 64 2.7 52 11.9
2009-01-16 08:50:05 51°20.032 2°55.362 64.4 2.7 52 11.9
2009-01-16 08:50:10 51°20.034 2°55.366 64.9 2.7 53 11.9
2009-01-16 08:50:15 51°20.036 2°55.371 65.6 2.6 54 11.9
2009-01-16 08:50:20 51°20.038 2°55.376 66.4 2.6 56 11.9
2009-01-16 08:50:25 51°20.04 2°55.381 67.1 2.6 56 11.9
2009-01-16 08:50:30 51°20.042 2°55.385 67.5 2.6 56 12
2009-01-16 08:50:35 51°20.044 2°55.39 68 2.6 57 11.9
2009-01-16 08:50:40 51°20.046 2°55.395 68.5 2.5 57 11.9
2009-01-16 08:50:45 51°20.048 2°55.4 69.1 2.5 56 12
2009-01-16 08:50:50 51°20.05 2°55.404 69.4 2.5 57 12
2009-01-16 08:50:55 51°20.052 2°55.409 69.6 2.5 58 11.9
2009-01-16 08:51:00 51°20.054 2°55.414 69.9 2.5 59 11.9
2009-01-16 08:51:05 51°20.055 2°55.419 69.9 2.5 59 12
2009-01-16 08:51:10 51°20.057 2°55.423 70.2 2.4 59 12
2009-01-16 08:51:15 51°20.058 2°55.428 71.8 2.4 65 12
2009-01-16 08:51:20 51°20.06 2°55.433 74.4 2.4 66 12
2009-01-16 08:51:25 51°20.061 2°55.437 76.8 2.3 67 12
2009-01-16 08:51:30 51°20.062 2°55.442 78.7 2.3 67 11.9
2009-01-16 08:51:35 51°20.063 2°55.447 80.2 2.3 70 11.9
2009-01-16 08:51:41 51°20.064 2°55.453 81.7 2.3 72 11.9
2009-01-16 08:51:45 51°20.065 2°55.457 83 2.3 73 11.9
2009-01-16 08:51:50 51°20.066 2°55.461 84.2 2.3 75 11.9
2009-01-16 08:51:55 51°20.067 2°55.466 85.4 2.2 76 11.9
2009-01-16 08:52:00 51°20.067 2°55.471 86.5 2.3 78 11.9
2009-01-16 08:52:05 51°20.068 2°55.476 87.6 2.3 79 11.9
2009-01-16 08:52:10 51°20.068 2°55.481 88.8 2.4 82 11.9
2009-01-16 08:52:15 51°20.069 2°55.487 89.9 2.4 83 11.9
2009-01-16 08:52:20 51°20.069 2°55.492 91.5 2.4 89 11.9
2009-01-16 08:52:25 51°20.069 2°55.497 93.6 2.4 92 11.9
2009-01-16 08:52:30 51°20.068 2°55.503 96.7 2.3 100 11.9
2009-01-16 08:52:35 51°20.068 2°55.507 100.4 2.3 104 11.9
2009-01-16 08:52:40 51°20.067 2°55.512 104.8 2.2 112 11.9
2009-01-16 08:52:45 51°20.065 2°55.517 109.3 2.2 116 11.8
2009-01-16 08:52:50 51°20.064 2°55.521 114.1 2.2 124 11.9
2009-01-16 08:52:55 51°20.062 2°55.525 118.5 2.2 125 11.8
2009-01-16 08:53:00 51°20.06 2°55.528 122.5 1.9 133 11.8
2009-01-16 08:53:05 51°20.058 2°55.531 126.4 1.7 132 11.8
2009-01-16 08:53:10 51°20.057 2°55.533 128.8 1.6 136 11.8
2009-01-16 08:53:15 51°20.055 2°55.535 130.2 1.5 140 11.8
2009-01-16 08:53:20 51°20.054 2°55.537 131.1 1.3 140 11.8
2009-01-16 08:53:25 51°20.053 2°55.539 132 1.2 142 11.8
2009-01-16 08:53:30 51°20.051 2°55.541 132.3 1.2 145 11.9
2009-01-16 08:53:35 51°20.05 2°55.542 132.5 1.1 141 11.8
2009-01-16 08:53:41 51°20.049 2°55.544 132.6 1 144 11.8
2009-01-16 08:53:45 51°20.048 2°55.545 132.6 0.9 145 11.9
2009-01-16 08:53:50 51°20.047 2°55.546 132.7 0.8 139 11.8
2009-01-16 08:53:55 51°20.046 2°55.547 132.4 0.7 146 11.9
2009-01-16 08:54:01 51°20.046 2°55.548 132.2 0.7 142 11.9
2009-01-16 08:54:05 51°20.045 2°55.549 131.5 0.6 144 11.8
2009-01-16 08:54:10 51°20.044 2°55.549 131 0.5 137 11.8
2009-01-16 08:54:15 51°20.044 2°55.55 130.7 0.5 145 11.9
2009-01-16 08:54:21 51°20.044 2°55.551 130.4 0.4 137 11.8
2009-01-16 08:54:25 51°20.043 2°55.551 129.8 0.3 145 11.9